Time;durP1;ratioP1;P1;durP2;ratioP2;P2;SDS_P1;SDS_P2;PMS_P1;PMS_P2;Temp;Humidity;BMP_temperature;BMP_pressure;BME280_temperature;BME280_humidity;BME280_pressure;Samples;Min_cycle;Max_cycle;Signal;HPM_P1;HPM_P2
2022/01/23 00:00:16;;;;;;;11.05;5.82;;;;;;;;;;5047367;28;20037;-57
2022/01/23 00:02:46;;;;;;;10.10;5.75;;;;;;;;;;5047256;28;20034;-58
2022/01/23 00:05:13;;;;;;;10.85;5.95;;;;;;;;;;5048061;28;20082;-58
2022/01/23 00:07:40;;;;;;;11.45;6.75;;;;;;;;;;5030202;28;20519;-58
2022/01/23 00:10:09;;;;;;;14.55;7.88;;;;;;;;;;5036983;28;20036;-58
2022/01/23 00:12:42;;;;;;;12.82;7.63;;;;;;;;;;5046952;28;20395;-58
2022/01/23 00:17:53;;;;;;;12.55;6.75;;;;;;;;;;5045852;28;20043;-58
2022/01/23 00:20:19;;;;;;;9.95;6.25;;;;;;;;;;5046637;28;20028;-57
2022/01/23 00:22:50;;;;;;;12.15;6.75;;;;;;;;;;5047460;28;20025;-57
2022/01/23 00:30:48;;;;;;;16.35;8.30;;;;;;;;;;5045306;28;20039;-58
2022/01/23 00:33:16;;;;;;;13.77;7.38;;;;;;;;;;5045275;28;20496;-58
2022/01/23 00:35:44;;;;;;;11.60;6.45;;;;;;;;;;5045557;28;20021;-58
2022/01/23 00:38:10;;;;;;;13.88;7.35;;;;;;;;;;5044531;28;20040;-58
2022/01/23 00:40:39;;;;;;;12.05;6.90;;;;;;;;;;5043446;28;20036;-58
2022/01/23 00:43:25;;;;;;;12.93;6.97;;;;;;;;;;5042006;28;20483;-58
2022/01/23 00:45:57;;;;;;;11.88;7.00;;;;;;;;;;5025111;28;20033;-58
2022/01/23 00:48:28;;;;;;;15.20;7.88;;;;;;;;;;5024119;28;20084;-58
2022/01/23 00:50:54;;;;;;;12.10;7.18;;;;;;;;;;5044342;28;20032;-58
2022/01/23 00:53:21;;;;;;;11.65;6.93;;;;;;;;;;5044561;28;20306;-58
2022/01/23 00:55:48;;;;;;;11.35;6.15;;;;;;;;;;5044737;28;20466;-58
2022/01/23 00:58:14;;;;;;;11.73;6.57;;;;;;;;;;5044646;28;20033;-58
2022/01/23 01:00:41;;;;;;;10.93;5.80;;;;;;;;;;5042613;28;20591;-58
2022/01/23 01:03:08;;;;;;;7.72;5.40;;;;;;;;;;5044126;28;20453;-58
2022/01/23 01:05:34;;;;;;;8.65;5.53;;;;;;;;;;5044459;28;20449;-58
2022/01/23 01:08:01;;;;;;;10.85;5.97;;;;;;;;;;5044103;28;20131;-58
2022/01/23 01:10:59;;;;;;;10.40;5.82;;;;;;;;;;5042901;28;20566;-58
2022/01/23 01:13:18;;;;;;;11.00;6.40;;;;;;;;;;5044456;28;20479;-58
2022/01/23 01:36:02;;;;;;;13.55;7.40;;;;;;;;;;5044205;28;20037;-58
2022/01/23 01:38:05;;;;;;;13.70;7.05;;;;;;;;;;5041677;28;20255;-58
2022/01/23 01:40:31;;;;;;;16.67;7.45;;;;;;;;;;5043961;28;20104;-58
2022/01/23 01:42:57;;;;;;;14.75;7.45;;;;;;;;;;5035213;28;20083;-58
2022/01/23 01:45:27;;;;;;;14.20;7.60;;;;;;;;;;5022774;28;20579;-58
2022/01/23 01:47:55;;;;;;;17.48;8.75;;;;;;;;;;5023700;28;20034;-58
2022/01/23 01:50:22;;;;;;;12.63;7.03;;;;;;;;;;5024211;28;20033;-58
2022/01/23 01:52:48;;;;;;;13.98;6.88;;;;;;;;;;5034059;28;20094;-58
2022/01/23 01:55:21;;;;;;;12.88;7.57;;;;;;;;;;5048476;28;20496;-58
2022/01/23 01:57:53;;;;;;;13.55;7.38;;;;;;;;;;5048308;28;20066;-58
2022/01/23 02:08:25;;;;;;;8.13;5.10;;;;;;;;;;5025180;28;20041;-58
2022/01/23 02:10:55;;;;;;;7.85;5.78;;;;;;;;;;5027801;28;20108;-58
2022/01/23 02:13:28;;;;;;;7.68;4.45;;;;;;;;;;5036142;28;20037;-58
2022/01/23 02:24:45;;;;;;;7.07;4.75;;;;;;;;;;5042034;28;20084;-58
2022/01/23 02:56:51;;;;;;;9.20;5.55;;;;;;;;;;5046687;28;20451;-58
2022/01/23 02:59:27;;;;;;;8.95;4.72;;;;;;;;;;5045022;28;20450;-58
2022/01/23 03:02:42;;;;;;;7.22;5.10;;;;;;;;;;5026025;28;20581;-58
2022/01/23 03:04:51;;;;;;;8.52;5.55;;;;;;;;;;5028913;28;20397;-58
2022/01/23 03:10:00;;;;;;;7.93;5.18;;;;;;;;;;5027564;28;20087;-58
2022/01/23 03:15:58;;;;;;;7.63;4.70;;;;;;;;;;5046711;28;20040;-57
2022/01/23 03:24:11;;;;;;;12.05;6.22;;;;;;;;;;5037376;28;20155;-58
2022/01/23 03:24:23;;;;;;;9.10;5.53;;;;;;;;;;5046314;28;20037;-58
2022/01/23 03:27:28;;;;;;;8.50;4.95;;;;;;;;;;5046014;28;20041;-58
2022/01/23 03:32:34;;;;;;;7.13;4.80;;;;;;;;;;5046076;28;20036;-57
2022/01/23 03:35:02;;;;;;;7.63;5.50;;;;;;;;;;5046259;28;20017;-58
2022/01/23 03:37:28;;;;;;;7.25;5.32;;;;;;;;;;5046135;28;20495;-58
2022/01/23 03:39:55;;;;;;;7.40;5.40;;;;;;;;;;5044589;28;20086;-58
2022/01/23 03:42:23;;;;;;;8.95;5.40;;;;;;;;;;5045714;28;20045;-57
2022/01/23 03:48:01;;;;;;;9.65;6.20;;;;;;;;;;5045705;28;20447;-57
2022/01/23 03:50:21;;;;;;;8.07;5.47;;;;;;;;;;5042803;28;20052;-57
2022/01/23 03:52:47;;;;;;;10.75;6.57;;;;;;;;;;5045807;28;20035;-58
2022/01/23 03:55:14;;;;;;;12.82;6.65;;;;;;;;;;5046039;28;20107;-58
2022/01/23 03:57:40;;;;;;;14.23;7.45;;;;;;;;;;5045541;28;20390;-58
2022/01/23 04:00:06;;;;;;;13.15;7.07;;;;;;;;;;5043520;28;20496;-57
2022/01/23 04:02:32;;;;;;;10.82;6.57;;;;;;;;;;5045503;28;20021;-58
2022/01/23 04:04:58;;;;;;;12.07;6.75;;;;;;;;;;5045906;28;20510;-58
2022/01/23 04:07:27;;;;;;;12.18;6.82;;;;;;;;;;5045993;28;20029;-58
2022/01/23 04:09:53;;;;;;;12.77;7.57;;;;;;;;;;5044223;28;20032;-58
2022/01/23 04:14:57;;;;;;;11.88;6.50;;;;;;;;;;5044479;28;20567;-57
2022/01/23 05:00:48;;;;;;;9.73;6.40;;;;;;;;;;5035006;28;20547;-58
2022/01/23 05:06:02;;;;;;;10.77;6.43;;;;;;;;;;5025666;28;20084;-58
2022/01/23 05:08:32;;;;;;;11.93;7.10;;;;;;;;;;5043276;28;20033;-58
2022/01/23 05:10:59;;;;;;;11.32;6.95;;;;;;;;;;5045001;28;20415;-58
2022/01/23 05:13:27;;;;;;;11.20;6.43;;;;;;;;;;5045019;28;20048;-58
2022/01/23 05:15:54;;;;;;;14.43;8.38;;;;;;;;;;5025464;28;20055;-58
2022/01/23 05:18:20;;;;;;;14.30;8.43;;;;;;;;;;5024305;28;20549;-57
2022/01/23 05:20:54;;;;;;;13.10;7.50;;;;;;;;;;5024674;28;20034;-57
2022/01/23 05:23:20;;;;;;;10.93;6.28;;;;;;;;;;5024468;28;20523;-57
2022/01/23 05:25:47;;;;;;;11.57;6.40;;;;;;;;;;5042299;28;20037;-57
2022/01/23 05:28:13;;;;;;;12.25;7.28;;;;;;;;;;5048317;28;20396;-58
2022/01/23 05:30:40;;;;;;;11.15;6.72;;;;;;;;;;5032972;28;20043;-58
2022/01/23 05:33:06;;;;;;;10.85;6.13;;;;;;;;;;5028285;28;20021;-58
2022/01/23 05:35:32;;;;;;;12.25;6.72;;;;;;;;;;5028226;28;20025;-58
2022/01/23 05:37:59;;;;;;;10.60;6.40;;;;;;;;;;5028252;28;20556;-58
2022/01/23 05:40:28;;;;;;;10.23;5.95;;;;;;;;;;5040074;28;20315;-57
2022/01/23 05:42:55;;;;;;;10.77;6.40;;;;;;;;;;5048891;28;20017;-58
2022/01/23 05:45:22;;;;;;;9.18;5.65;;;;;;;;;;5048083;28;20029;-58
2022/01/23 05:47:48;;;;;;;9.98;6.28;;;;;;;;;;5048238;28;20024;-58
2022/01/23 05:50:14;;;;;;;10.48;6.25;;;;;;;;;;5043761;28;20036;-58
2022/01/23 05:52:41;;;;;;;13.40;7.07;;;;;;;;;;5031497;28;20022;-58
2022/01/23 05:55:08;;;;;;;11.25;6.65;;;;;;;;;;5028199;28;20025;-57
2022/01/23 05:57:35;;;;;;;10.77;6.43;;;;;;;;;;5027945;28;20026;-58
2022/01/23 06:00:01;;;;;;;10.82;6.55;;;;;;;;;;5035106;28;20029;-57
2022/01/23 06:02:27;;;;;;;11.88;6.55;;;;;;;;;;5035389;28;20083;-58
2022/01/23 06:04:53;;;;;;;12.13;7.18;;;;;;;;;;5028052;28;20029;-56
2022/01/23 06:07:19;;;;;;;11.82;7.22;;;;;;;;;;5027669;28;20817;-58
2022/01/23 06:09:45;;;;;;;10.85;6.13;;;;;;;;;;5032224;28;20048;-57
2022/01/23 06:12:11;;;;;;;9.90;6.20;;;;;;;;;;5047838;28;20021;-57
2022/01/23 06:14:37;;;;;;;11.55;7.15;;;;;;;;;;5047385;28;20033;-57
2022/01/23 06:17:03;;;;;;;10.07;5.93;;;;;;;;;;5047681;28;20528;-58
2022/01/23 06:19:29;;;;;;;11.02;6.85;;;;;;;;;;5040841;28;20060;-57
2022/01/23 06:21:55;;;;;;;10.13;6.07;;;;;;;;;;5035655;28;20103;-57
2022/01/23 06:24:26;;;;;;;11.63;6.45;;;;;;;;;;5028918;28;20041;-57
2022/01/23 06:27:02;;;;;;;11.32;6.57;;;;;;;;;;5029066;28;20025;-57
2022/01/23 06:29:31;;;;;;;10.27;6.63;;;;;;;;;;5028877;28;20036;-57
2022/01/23 06:32:02;;;;;;;10.68;6.20;;;;;;;;;;5029599;28;20017;-57
2022/01/23 06:34:28;;;;;;;12.32;6.90;;;;;;;;;;5031848;28;20033;-57
2022/01/23 06:36:55;;;;;;;13.98;7.45;;;;;;;;;;5047756;28;20017;-57
2022/01/23 06:39:22;;;;;;;10.90;6.78;;;;;;;;;;5042453;28;20429;-57
2022/01/23 06:41:49;;;;;;;13.75;7.00;;;;;;;;;;5028916;28;20029;-57
2022/01/23 06:44:15;;;;;;;10.07;6.10;;;;;;;;;;5028704;28;20029;-57
2022/01/23 06:46:41;;;;;;;11.55;6.20;;;;;;;;;;5036650;28;20032;-57
2022/01/23 06:49:08;;;;;;;13.48;7.03;;;;;;;;;;5036816;28;20036;-57
2022/01/23 06:51:34;;;;;;;11.15;6.28;;;;;;;;;;5035187;28;20028;-57
2022/01/23 06:54:00;;;;;;;12.73;6.57;;;;;;;;;;5045783;28;20029;-57
2022/01/23 06:56:26;;;;;;;10.82;6.22;;;;;;;;;;5049117;28;20051;-57
2022/01/23 06:58:52;;;;;;;11.18;6.32;;;;;;;;;;5032672;28;20068;-57
2022/01/23 07:01:18;;;;;;;11.50;6.80;;;;;;;;;;5047092;28;20564;-57
2022/01/23 07:03:45;;;;;;;12.60;6.70;;;;;;;;;;5040439;28;20040;-57
2022/01/23 07:06:11;;;;;;;13.63;6.38;;;;;;;;;;5031039;28;20076;-58
2022/01/23 07:08:37;;;;;;;11.02;6.93;;;;;;;;;;5035017;28;20079;-57
2022/01/23 07:11:03;;;;;;;10.43;5.85;;;;;;;;;;5039268;28;20093;-57
2022/01/23 07:13:29;;;;;;;11.18;6.57;;;;;;;;;;5034102;28;20106;-57
2022/01/23 07:15:55;;;;;;;11.18;6.75;;;;;;;;;;5038671;28;20547;-57
2022/01/23 07:18:21;;;;;;;10.30;6.53;;;;;;;;;;5059804;28;20476;-57
2022/01/23 07:20:48;;;;;;;12.02;6.63;;;;;;;;;;5031485;28;20485;-57
2022/01/23 07:23:14;;;;;;;12.20;7.05;;;;;;;;;;5028317;28;20033;-57
2022/01/23 07:25:42;;;;;;;10.15;6.10;;;;;;;;;;5028154;28;20064;-57
2022/01/23 07:28:14;;;;;;;14.57;7.03;;;;;;;;;;5027884;28;20032;-57
2022/01/23 07:31:03;;;;;;;11.70;6.65;;;;;;;;;;5027815;28;20022;-57
2022/01/23 07:33:29;;;;;;;12.05;7.15;;;;;;;;;;5028459;28;20017;-57
2022/01/23 07:35:55;;;;;;;12.52;7.10;;;;;;;;;;5028675;28;20029;-57
2022/01/23 07:38:21;;;;;;;14.07;6.95;;;;;;;;;;5027560;28;20080;-57
2022/01/23 07:40:51;;;;;;;13.25;6.88;;;;;;;;;;5027634;28;20551;-57
2022/01/23 07:43:17;;;;;;;12.35;7.07;;;;;;;;;;5059593;28;20029;-57
2022/01/23 07:45:43;;;;;;;11.48;6.65;;;;;;;;;;5047587;28;20029;-57
2022/01/23 07:48:10;;;;;;;11.32;6.60;;;;;;;;;;5057060;28;20785;-57
2022/01/23 07:50:36;;;;;;;12.40;7.47;;;;;;;;;;5067402;28;20364;-57
2022/01/23 07:53:03;;;;;;;13.02;7.70;;;;;;;;;;5067423;28;20028;-57
2022/01/23 07:55:29;;;;;;;15.43;8.32;;;;;;;;;;5061608;28;20463;-57
2022/01/23 07:58:02;;;;;;;13.40;7.60;;;;;;;;;;5056325;28;20115;-57
2022/01/23 08:00:28;;;;;;;13.10;7.53;;;;;;;;;;5067916;28;20027;-57
2022/01/23 08:02:54;;;;;;;13.82;7.68;;;;;;;;;;5053927;28;20285;-57
2022/01/23 08:05:20;;;;;;;12.50;7.28;;;;;;;;;;5042508;28;20442;-57
2022/01/23 08:07:46;;;;;;;11.40;7.13;;;;;;;;;;5034522;28;20128;-57
2022/01/23 08:10:15;;;;;;;11.95;7.30;;;;;;;;;;5045987;28;20100;-57
2022/01/23 08:12:41;;;;;;;10.98;6.88;;;;;;;;;;5026957;28;20042;-57
2022/01/23 08:15:08;;;;;;;12.82;7.00;;;;;;;;;;5027188;28;20021;-57
2022/01/23 08:17:34;;;;;;;14.00;7.13;;;;;;;;;;5027057;28;20385;-57
2022/01/23 08:20:02;;;;;;;13.82;7.55;;;;;;;;;;5027770;28;20033;-57
2022/01/23 08:22:29;;;;;;;12.43;7.28;;;;;;;;;;5027373;28;20064;-57
2022/01/23 08:24:56;;;;;;;13.93;7.53;;;;;;;;;;5027833;28;20112;-57
2022/01/23 08:27:26;;;;;;;15.38;7.35;;;;;;;;;;5034241;28;20039;-57
2022/01/23 08:29:52;;;;;;;12.35;7.10;;;;;;;;;;5040110;28;20485;-57
2022/01/23 08:32:18;;;;;;;12.38;7.18;;;;;;;;;;5035557;28;20056;-57
2022/01/23 08:34:44;;;;;;;12.98;6.78;;;;;;;;;;5046901;28;20021;-57
2022/01/23 08:37:10;;;;;;;12.48;6.95;;;;;;;;;;5030867;28;20091;-57
2022/01/23 08:39:37;;;;;;;14.15;7.70;;;;;;;;;;5027763;28;20037;-57
2022/01/23 08:42:05;;;;;;;14.38;7.32;;;;;;;;;;5026813;28;20091;-57
2022/01/23 08:44:31;;;;;;;12.30;7.38;;;;;;;;;;5026750;28;20026;-56
2022/01/23 08:46:58;;;;;;;14.32;7.88;;;;;;;;;;5027137;28;20065;-57
2022/01/23 08:49:24;;;;;;;12.65;7.30;;;;;;;;;;5042571;28;20021;-57
2022/01/23 08:51:51;;;;;;;14.68;7.47;;;;;;;;;;5036824;28;20025;-57
2022/01/23 08:54:17;;;;;;;13.52;6.80;;;;;;;;;;5031392;28;20047;-57
2022/01/23 08:56:43;;;;;;;12.93;7.40;;;;;;;;;;5028232;28;20052;-57
2022/01/23 08:59:10;;;;;;;13.18;7.88;;;;;;;;;;5035456;28;20025;-57
2022/01/23 09:01:36;;;;;;;11.25;6.90;;;;;;;;;;5026543;28;20041;-57
2022/01/23 09:04:03;;;;;;;13.15;7.22;;;;;;;;;;5025331;28;20029;-57
2022/01/23 09:06:29;;;;;;;12.93;7.93;;;;;;;;;;5026487;28;20038;-57
2022/01/23 09:08:57;;;;;;;14.88;7.97;;;;;;;;;;5029175;28;20044;-57
2022/01/23 09:11:39;;;;;;;12.48;7.32;;;;;;;;;;5053163;28;20048;-57
2022/01/23 09:14:09;;;;;;;11.75;6.38;;;;;;;;;;5050423;28;20704;-57
2022/01/23 09:16:38;;;;;;;14.52;8.00;;;;;;;;;;5038723;28;20039;-57
2022/01/23 09:19:05;;;;;;;18.33;9.68;;;;;;;;;;5066105;28;20488;-56
2022/01/23 09:21:32;;;;;;;18.35;9.30;;;;;;;;;;5066008;28;20107;-57
2022/01/23 09:23:59;;;;;;;14.25;8.02;;;;;;;;;;5066632;28;20447;-57
2022/01/23 09:26:25;;;;;;;14.00;7.70;;;;;;;;;;5063591;28;20036;-57
2022/01/23 09:28:54;;;;;;;16.10;7.53;;;;;;;;;;5032261;28;20095;-57
2022/01/23 09:31:48;;;;;;;16.38;8.27;;;;;;;;;;5032199;28;20041;-57
2022/01/23 09:34:14;;;;;;;14.77;7.85;;;;;;;;;;5039153;28;20428;-57
2022/01/23 09:36:40;;;;;;;14.02;7.57;;;;;;;;;;5047091;28;20024;-57
2022/01/23 09:39:06;;;;;;;15.10;8.00;;;;;;;;;;5033309;28;20546;-57
2022/01/23 09:41:34;;;;;;;12.15;6.90;;;;;;;;;;5042875;28;20109;-57
2022/01/23 09:44:01;;;;;;;15.63;7.82;;;;;;;;;;5041591;28;20038;-57
2022/01/23 09:46:27;;;;;;;17.33;9.07;;;;;;;;;;5035387;28;20642;-57
2022/01/23 09:48:54;;;;;;;15.48;8.27;;;;;;;;;;5026533;28;20021;-57
2022/01/23 09:51:24;;;;;;;15.70;8.40;;;;;;;;;;5036957;28;20421;-57
2022/01/23 09:53:54;;;;;;;17.60;9.30;;;;;;;;;;5035676;28;20790;-58
2022/01/23 09:56:26;;;;;;;19.70;10.13;;;;;;;;;;5051143;28;20098;-57
2022/01/23 09:58:52;;;;;;;20.80;10.55;;;;;;;;;;5038916;28;20037;-58
2022/01/23 10:01:20;;;;;;;16.60;9.02;;;;;;;;;;5044190;28;20025;-58
2022/01/23 10:03:46;;;;;;;18.48;9.40;;;;;;;;;;5036992;28;20032;-58
2022/01/23 10:06:12;;;;;;;15.82;8.48;;;;;;;;;;5046282;28;20025;-57
2022/01/23 10:08:39;;;;;;;16.15;8.95;;;;;;;;;;5039387;28;20095;-58
2022/01/23 10:11:10;;;;;;;17.05;8.77;;;;;;;;;;5033412;28;20087;-57
2022/01/23 10:13:36;;;;;;;16.15;9.13;;;;;;;;;;5040803;28;20021;-59
2022/01/23 10:16:03;;;;;;;17.23;8.77;;;;;;;;;;5045921;28;20055;-58
2022/01/23 10:18:29;;;;;;;15.13;8.48;;;;;;;;;;5034828;28;20156;-58
2022/01/23 10:20:55;;;;;;;18.55;10.45;;;;;;;;;;5042062;28;20080;-58
2022/01/23 10:23:22;;;;;;;21.45;11.07;;;;;;;;;;5042573;28;20072;-57
2022/01/23 10:25:51;;;;;;;24.30;12.15;;;;;;;;;;5043792;28;20552;-57
2022/01/23 10:28:19;;;;;;;24.25;11.25;;;;;;;;;;5030877;28;20029;-57
2022/01/23 10:30:48;;;;;;;21.80;10.70;;;;;;;;;;5039016;28;20030;-57
2022/01/23 10:33:17;;;;;;;18.48;9.50;;;;;;;;;;5030538;28;20445;-57
2022/01/23 10:35:53;;;;;;;21.70;10.30;;;;;;;;;;5032785;28;20033;-58
2022/01/23 10:38:19;;;;;;;20.50;10.30;;;;;;;;;;5027818;28;20030;-57
2022/01/23 10:40:53;;;;;;;23.75;11.65;;;;;;;;;;5044441;28;20515;-57
2022/01/23 10:48:36;;;;;;;35.17;13.95;;;;;;;;;;5029640;28;20457;-57
2022/01/23 10:51:13;;;;;;;34.15;13.13;;;;;;;;;;5049167;28;20035;-58
2022/01/23 10:53:59;;;;;;;29.13;12.45;;;;;;;;;;5037878;28;20036;-58
2022/01/23 10:56:26;;;;;;;25.02;11.90;;;;;;;;;;5029552;28;20026;-58
2022/01/23 10:58:58;;;;;;;22.67;11.52;;;;;;;;;;5029026;28;20052;-58
2022/01/23 11:01:24;;;;;;;22.65;11.07;;;;;;;;;;5029004;28;20030;-57
2022/01/23 11:04:03;;;;;;;19.95;10.52;;;;;;;;;;5032038;28;20405;-58
2022/01/23 11:06:30;;;;;;;17.05;9.18;;;;;;;;;;5035289;28;20619;-58
2022/01/23 11:09:11;;;;;;;18.50;9.32;;;;;;;;;;5054555;28;20029;-57
2022/01/23 11:11:47;;;;;;;16.67;8.88;;;;;;;;;;5056191;28;20125;-58
2022/01/23 11:17:22;;;;;;;16.25;8.43;;;;;;;;;;5044195;28;20036;-58
2022/01/23 11:19:49;;;;;;;17.80;9.55;;;;;;;;;;5068644;28;20564;-58
2022/01/23 11:22:19;;;;;;;15.65;8.75;;;;;;;;;;5040323;28;20611;-58
2022/01/23 11:24:47;;;;;;;16.25;8.65;;;;;;;;;;5029565;28;20056;-57
2022/01/23 11:27:13;;;;;;;12.05;7.55;;;;;;;;;;5031049;28;20041;-58
2022/01/23 11:29:53;;;;;;;14.15;7.82;;;;;;;;;;5047997;28;20032;-58
2022/01/23 11:32:20;;;;;;;16.08;9.00;;;;;;;;;;5048079;28;20123;-58
2022/01/23 11:34:46;;;;;;;15.18;7.90;;;;;;;;;;5048590;28;20678;-58
2022/01/23 11:37:15;;;;;;;15.25;8.30;;;;;;;;;;5028503;28;20024;-59
2022/01/23 11:39:54;;;;;;;14.10;7.45;;;;;;;;;;5031439;28;20086;-58
2022/01/23 11:56:22;;;;;;;16.70;9.05;;;;;;;;;;5043613;28;20040;-58
2022/01/23 11:58:52;;;;;;;15.68;9.40;;;;;;;;;;5044044;28;20079;-58
2022/01/23 12:01:19;;;;;;;15.02;8.82;;;;;;;;;;5046050;28;20470;-60
2022/01/23 12:04:03;;;;;;;16.55;9.65;;;;;;;;;;5047949;28;20033;-59
2022/01/23 12:06:30;;;;;;;16.00;9.50;;;;;;;;;;5033882;28;21287;-59
2022/01/23 12:09:18;;;;;;;25.17;15.57;;;;;;;;;;5027612;28;20053;-59
2022/01/23 12:12:03;;;;;;;20.50;12.77;;;;;;;;;;5027782;28;20035;-59
2022/01/23 12:17:11;;;;;;;19.88;11.75;;;;;;;;;;5027642;28;19909;-59
2022/01/23 12:20:03;;;;;;;18.42;11.23;;;;;;;;;;5027451;28;20033;-59
2022/01/23 12:22:32;;;;;;;19.63;10.50;;;;;;;;;;5045752;28;20366;-59
2022/01/23 12:24:59;;;;;;;20.20;10.32;;;;;;;;;;5047752;28;20078;-59
2022/01/23 12:27:27;;;;;;;17.15;9.55;;;;;;;;;;5029877;28;20508;-59
2022/01/23 12:30:09;;;;;;;18.35;9.35;;;;;;;;;;5058133;28;20115;-58
2022/01/23 12:32:35;;;;;;;15.00;8.48;;;;;;;;;;5035847;28;20070;-58
2022/01/23 12:35:04;;;;;;;15.90;8.63;;;;;;;;;;5052488;28;20056;-59
2022/01/23 12:37:49;;;;;;;17.20;9.25;;;;;;;;;;5025653;28;20087;-58
2022/01/23 12:40:28;;;;;;;20.75;11.18;;;;;;;;;;5031579;28;20029;-59
2022/01/23 12:43:08;;;;;;;19.05;10.65;;;;;;;;;;5044638;28;20417;-59
2022/01/23 12:46:05;;;;;;;21.48;10.77;;;;;;;;;;5031156;28;20041;-58
2022/01/23 12:48:37;;;;;;;21.40;10.95;;;;;;;;;;5028150;28;20480;-58
2022/01/23 12:51:03;;;;;;;22.58;11.35;;;;;;;;;;5025643;28;20546;-58
2022/01/23 12:53:47;;;;;;;23.63;12.15;;;;;;;;;;5025162;28;20025;-58
2022/01/23 12:56:15;;;;;;;20.00;10.73;;;;;;;;;;5023507;28;20152;-58
2022/01/23 12:58:42;;;;;;;22.88;10.93;;;;;;;;;;5024726;28;20029;-58
2022/01/23 13:01:16;;;;;;;25.52;12.63;;;;;;;;;;5025267;28;20036;-58
2022/01/23 13:03:43;;;;;;;;;;;;;;;;;;5025639;28;20080;-58
2022/01/23 13:06:12;;;;;;;26.95;14.02;;;;;;;;;;5025038;28;19905;-58
2022/01/23 13:08:48;;;;;;;30.45;15.00;;;;;;;;;;5022737;28;20037;-58
2022/01/23 13:11:50;;;;;;;26.50;13.90;;;;;;;;;;5024374;28;20022;-58
2022/01/23 13:14:04;;;;;;;25.83;13.18;;;;;;;;;;5024744;28;20037;-59
2022/01/23 13:16:39;;;;;;;38.03;17.65;;;;;;;;;;5024065;28;20017;-58
2022/01/23 13:19:47;;;;;;;33.33;15.93;;;;;;;;;;5024669;28;20036;-58
2022/01/23 13:30:20;;;;;;;23.42;12.70;;;;;;;;;;5024200;28;20030;-58
2022/01/23 13:32:49;;;;;;;20.08;12.00;;;;;;;;;;5024927;28;20052;-58
2022/01/23 13:35:17;;;;;;;17.77;10.77;;;;;;;;;;5024712;28;20029;-58
2022/01/23 13:37:49;;;;;;;18.15;9.57;;;;;;;;;;5025205;28;20028;-58
2022/01/23 13:40:29;;;;;;;17.52;9.32;;;;;;;;;;5024672;28;20021;-58
2022/01/23 13:59:17;;;;;;;11.93;7.80;;;;;;;;;;5028709;28;20087;-58
2022/01/23 14:02:17;;;;;;;13.50;7.57;;;;;;;;;;5028344;28;20501;-58
2022/01/23 14:04:37;;;;;;;24.33;10.93;;;;;;;;;;5027177;28;20592;-58
2022/01/23 14:07:03;;;;;;;24.98;10.88;;;;;;;;;;5027758;28;20137;-58
2022/01/23 14:09:29;;;;;;;27.83;12.35;;;;;;;;;;5027552;28;20060;-58
2022/01/23 14:11:55;;;;;;;29.58;12.98;;;;;;;;;;5028043;28;20021;-58
2022/01/23 14:14:27;;;;;;;27.33;12.10;;;;;;;;;;5027500;28;20507;-58
2022/01/23 14:16:54;;;;;;;27.75;12.02;;;;;;;;;;5028083;28;20022;-58
2022/01/23 14:19:25;;;;;;;25.42;12.15;;;;;;;;;;5027533;28;20529;-58
2022/01/23 14:21:52;;;;;;;26.10;10.93;;;;;;;;;;5027647;28;20108;-58
2022/01/23 14:24:36;;;;;;;24.83;11.20;;;;;;;;;;5027539;28;20550;-58
2022/01/23 14:27:06;;;;;;;28.55;12.07;;;;;;;;;;5027735;28;20386;-58
2022/01/23 14:29:34;;;;;;;31.38;13.52;;;;;;;;;;5027205;28;20470;-58
2022/01/23 14:32:36;;;;;;;36.78;14.88;;;;;;;;;;5027685;28;20018;-58
2022/01/23 14:35:13;;;;;;;39.40;15.10;;;;;;;;;;5027523;28;20024;-58
2022/01/23 14:37:40;;;;;;;44.30;17.40;;;;;;;;;;5025447;28;20018;-58
2022/01/23 14:40:10;;;;;;;47.60;18.08;;;;;;;;;;5027986;28;20087;-58
2022/01/23 14:42:36;;;;;;;50.78;19.60;;;;;;;;;;5027329;28;20064;-58
2022/01/23 14:45:09;;;;;;;57.20;21.05;;;;;;;;;;5029112;28;20087;-58
2022/01/23 14:47:39;;;;;;;65.18;24.40;;;;;;;;;;5028765;28;20037;-58
2022/01/23 14:50:06;;;;;;;63.70;22.98;;;;;;;;;;5029003;28;20464;-58
2022/01/23 14:52:34;;;;;;;64.30;22.48;;;;;;;;;;5028091;28;20068;-58
2022/01/23 14:55:02;;;;;;;67.07;23.75;;;;;;;;;;5029053;28;20025;-58
2022/01/23 14:57:31;;;;;;;68.35;23.17;;;;;;;;;;5027810;28;20397;-58
2022/01/23 15:00:00;;;;;;;54.65;21.83;;;;;;;;;;5028767;28;20029;-58
2022/01/23 15:02:26;;;;;;;58.30;19.92;;;;;;;;;;5028625;28;20029;-58
2022/01/23 15:04:52;;;;;;;52.85;19.80;;;;;;;;;;5028678;28;20072;-59
2022/01/23 15:07:18;;;;;;;48.58;17.48;;;;;;;;;;5028089;28;20085;-58
2022/01/23 15:09:49;;;;;;;49.25;15.68;;;;;;;;;;5028637;28;20080;-58
2022/01/23 15:12:16;;;;;;;44.35;16.25;;;;;;;;;;5028681;28;20037;-58
2022/01/23 15:14:42;;;;;;;39.15;13.88;;;;;;;;;;5028357;28;20083;-58
2022/01/23 15:17:09;;;;;;;27.23;11.75;;;;;;;;;;5028378;28;20029;-58
2022/01/23 15:19:35;;;;;;;44.13;15.82;;;;;;;;;;5028421;28;20029;-58
2022/01/23 15:22:01;;;;;;;39.63;14.45;;;;;;;;;;5028256;28;20481;-59
2022/01/23 15:24:28;;;;;;;35.03;13.13;;;;;;;;;;5028302;28;20087;-58
2022/01/23 15:26:54;;;;;;;36.83;12.85;;;;;;;;;;5028773;28;20823;-58
2022/01/23 15:29:20;;;;;;;33.70;12.18;;;;;;;;;;5028421;28;20037;-58
2022/01/23 15:31:47;;;;;;;29.80;11.85;;;;;;;;;;5028099;28;20515;-58
2022/01/23 15:34:15;;;;;;;30.65;12.10;;;;;;;;;;5028094;28;20068;-58
2022/01/23 15:36:42;;;;;;;29.65;12.43;;;;;;;;;;5027539;28;20447;-58
2022/01/23 15:39:09;;;;;;;28.13;11.93;;;;;;;;;;5028040;28;20033;-58
2022/01/23 15:41:35;;;;;;;27.30;11.73;;;;;;;;;;5027923;28;20059;-58
2022/01/23 15:44:01;;;;;;;25.05;10.10;;;;;;;;;;5027871;28;20025;-58
2022/01/23 15:46:28;;;;;;;26.15;10.18;;;;;;;;;;5027531;28;20118;-58
2022/01/23 15:48:55;;;;;;;25.73;9.35;;;;;;;;;;5027929;28;20038;-58
2022/01/23 15:51:21;;;;;;;22.30;9.35;;;;;;;;;;5027295;28;20017;-58
2022/01/23 15:53:47;;;;;;;23.90;8.82;;;;;;;;;;5028141;28;20086;-58
2022/01/23 15:56:14;;;;;;;29.75;10.80;;;;;;;;;;5027863;28;20489;-58
2022/01/23 15:58:40;;;;;;;28.48;11.35;;;;;;;;;;5027404;28;20033;-58
2022/01/23 16:01:06;;;;;;;29.55;11.00;;;;;;;;;;5027603;28;20160;-58
2022/01/23 16:03:33;;;;;;;21.60;8.75;;;;;;;;;;5027088;28;20555;-58
2022/01/23 16:05:59;;;;;;;32.72;11.23;;;;;;;;;;5027264;28;20025;-58
2022/01/23 16:08:26;;;;;;;25.30;10.35;;;;;;;;;;5027182;28;20041;-58
2022/01/23 16:10:52;;;;;;;23.80;8.88;;;;;;;;;;5027534;28;20075;-58
2022/01/23 16:13:19;;;;;;;22.10;8.65;;;;;;;;;;5027424;28;20489;-58
2022/01/23 16:15:45;;;;;;;24.33;8.98;;;;;;;;;;5027426;28;20030;-58
2022/01/23 16:18:12;;;;;;;26.63;10.13;;;;;;;;;;5027306;28;20068;-58
2022/01/23 16:20:38;;;;;;;30.77;10.25;;;;;;;;;;5027021;28;20032;-58
2022/01/23 16:23:05;;;;;;;29.05;11.38;;;;;;;;;;5027242;28;20077;-58
2022/01/23 16:25:32;;;;;;;26.88;10.55;;;;;;;;;;5027050;28;20148;-58
2022/01/23 16:27:59;;;;;;;25.10;9.88;;;;;;;;;;5027056;28;20029;-58
2022/01/23 16:30:25;;;;;;;19.48;8.63;;;;;;;;;;5027071;28;20408;-58
2022/01/23 16:32:51;;;;;;;15.88;7.13;;;;;;;;;;5027582;28;20559;-58
2022/01/23 16:35:21;;;;;;;15.98;7.45;;;;;;;;;;5025040;28;20120;-58
2022/01/23 16:37:48;;;;;;;13.15;6.28;;;;;;;;;;5032127;28;20021;-58
2022/01/23 16:40:14;;;;;;;13.30;6.68;;;;;;;;;;5040394;28;20035;-58
2022/01/23 16:42:40;;;;;;;11.48;6.03;;;;;;;;;;5052997;28;20029;-58
2022/01/23 16:45:07;;;;;;;12.98;6.90;;;;;;;;;;5046998;28;20516;-58
2022/01/23 16:47:33;;;;;;;11.50;6.15;;;;;;;;;;5040689;28;20067;-58
2022/01/23 16:49:59;;;;;;;12.32;6.10;;;;;;;;;;5035755;28;20223;-58
2022/01/23 16:52:25;;;;;;;11.80;6.20;;;;;;;;;;5045091;28;20369;-58
2022/01/23 16:54:51;;;;;;;9.60;5.60;;;;;;;;;;5027417;28;20021;-58
2022/01/23 16:57:18;;;;;;;12.63;6.07;;;;;;;;;;5025870;28;20036;-58
2022/01/23 16:59:44;;;;;;;10.45;6.18;;;;;;;;;;5026098;28;20621;-58
2022/01/23 17:02:10;;;;;;;12.27;6.40;;;;;;;;;;5026153;28;20452;-58
2022/01/23 17:04:36;;;;;;;11.52;6.18;;;;;;;;;;5024455;28;20540;-58
2022/01/23 17:07:02;;;;;;;10.93;6.25;;;;;;;;;;5037207;28;20044;-58
2022/01/23 17:09:30;;;;;;;10.07;5.72;;;;;;;;;;5045198;28;20392;-58
2022/01/23 17:12:00;;;;;;;11.23;6.30;;;;;;;;;;5033808;28;20037;-59
2022/01/23 17:14:27;;;;;;;9.52;5.28;;;;;;;;;;5027181;28;20396;-58
2022/01/23 17:16:53;;;;;;;11.02;6.45;;;;;;;;;;5023677;28;20033;-58
2022/01/23 17:19:19;;;;;;;12.95;7.00;;;;;;;;;;5033111;28;20507;-58
2022/01/23 17:21:45;;;;;;;11.02;6.07;;;;;;;;;;5051705;28;20036;-58
2022/01/23 17:24:11;;;;;;;11.77;6.22;;;;;;;;;;5050574;28;20021;-58
2022/01/23 17:26:37;;;;;;;12.77;6.47;;;;;;;;;;5045578;28;20033;-59
2022/01/23 17:29:03;;;;;;;11.10;6.20;;;;;;;;;;5042522;28;20078;-59
2022/01/23 17:31:30;;;;;;;11.50;6.18;;;;;;;;;;5037184;28;20034;-58
2022/01/23 17:33:57;;;;;;;11.18;6.13;;;;;;;;;;5033877;28;20515;-58
2022/01/23 17:36:23;;;;;;;11.32;6.30;;;;;;;;;;5025342;28;20029;-59
2022/01/23 17:38:49;;;;;;;10.50;5.72;;;;;;;;;;5028887;28;20183;-58
2022/01/23 17:41:16;;;;;;;11.98;6.63;;;;;;;;;;5039695;28;20041;-58
2022/01/23 17:43:42;;;;;;;10.70;5.97;;;;;;;;;;5038869;28;20029;-58
2022/01/23 17:46:11;;;;;;;12.02;6.68;;;;;;;;;;5033560;28;20025;-58